Hagen — V2PB3 — position and weather

sailwx.info

Track history (hours):
 
Tides and Currents Weather Stations Pressure Air Temp Water Temp Dewpoint Dewpoint Depression Visibility Wind Speed Wind Dir Waves Ship Positions

Hagen

Last reported at 2014-Dec-22 08:33 UTC. Time now 2014-Dec-22 12:46 UTC.
Position N 57°48' E 010°45'.

Length 89 m; draft 5.9 m.

Type: Cargo ship. MMSI: 304010898.

Date/timePositionNaut miles runAvg speedWind from/ knotsBaromVisibWave heightAir tempDewpointWater temp
2014-Dec-22 08:33N 57°48' E 010°45'7 4.8
2014-Dec-22 07:07N 57°42' E 010°39'0 0.0
2014-Dec-22 02:32N 57°42' E 010°39'3 1.5
2014-Dec-22 00:30N 57°40' E 010°45'8 8.1
2014-Dec-21 23:33N 57°36' E 010°56'9 9.2
2014-Dec-21 22:33N 57°32' E 011°11'9 9.0
2014-Dec-21 21:33N 57°27' E 011°26'9 9.4
2014-Dec-21 20:33N 57°19' E 011°32'9 9.2
2014-Dec-21 19:33N 57°10' E 011°38'10 8.7
2014-Dec-21 18:22N 57°00' E 011°45'8 8.3
2014-Dec-21 17:26N 56°53' E 011°49'8 8.9
2014-Dec-21 16:33N 56°46' E 011°54'9 8.6
2014-Dec-21 15:32N 56°37' E 011°58'8 8.4
2014-Dec-21 14:33N 56°29' E 012°01'17 7.8
2014-Dec-21 12:19N 56°14' E 012°16'6 7.6
2014-Dec-21 11:33N 56°11' E 012°25'7 7.4
2014-Dec-21 10:33N 56°06' E 012°35'7 6.9
2014-Dec-21 09:33N 55°60' E 012°41'7 7.0
2014-Dec-21 08:33N 55°53' E 012°44'8 7.6
2014-Dec-21 07:33N 55°46' E 012°42'8 8.1
2014-Dec-21 06:33N 55°38' E 012°42'8 7.7
2014-Dec-21 05:33N 55°30' E 012°43'9 8.5
2014-Dec-21 04:33N 55°21' E 012°41'7 7.0
2014-Dec-21 03:33N 55°16' E 012°50'8 7.6
2014-Dec-21 02:33N 55°15' E 013°03'8 8.2
2014-Dec-21 01:33N 55°15' E 013°17'9 8.7
2014-Dec-21 00:29N 55°14' E 013°34'8 8.1
2014-Dec-20 23:33N 55°14' E 013°47'7 7.5
2014-Dec-20 22:33N 55°13' E 013°60'8 7.6
2014-Dec-20 21:33N 55°13' E 014°13'8 7.8
2014-Dec-20 20:33N 55°18' E 014°24'9 9.0
2014-Dec-20 19:33N 55°25' E 014°33'8 8.2
2014-Dec-20 18:33N 55°30' E 014°45'7 7.3
2014-Dec-20 17:33N 55°33' E 014°56'8 7.2
2014-Dec-20 16:31N 55°37' E 015°08'7 7.1
2014-Dec-20 15:30N 55°41' E 015°18'  
2014-Dec-15 17:33N 55°31' E 015°03'1010.4
2014-Dec-15 16:33N 55°26' E 014°47'1010.3
2014-Dec-15 15:33N 55°19' E 014°34'1110.6
2014-Dec-15 14:33N 55°11' E 014°21'1110.6
2014-Dec-15 13:33N 55°03' E 014°10'1110.6
2014-Dec-15 12:33N 54°58' E 013°53'5010.0
2014-Dec-15 07:33N 54°40' E 012°32'10 9.9
2014-Dec-15 06:33N 54°34' E 012°19'1110.0
2014-Dec-15 05:29N 54°25' E 012°09'1010.1
2014-Dec-15 04:29N 54°25' E 011°52'53 9.7
2014-Dec-14 23:05N 54°30' E 010°22'5 9.3
2014-Dec-14 22:33N 54°27' E 010°15'7 6.6
2014-Dec-14 21:33N 54°22' E 010°08'0 0.5
2014-Dec-14 20:31N 54°22' E 010°08'0 0.1
2014-Dec-14 19:33N 54°22' E 010°07'6 6.1
2014-Dec-14 18:33N 54°20' E 009°57'6 6.2
2014-Dec-14 17:33N 54°21' E 009°47'21 6.1
2014-Dec-14 14:08N 54°07' E 009°20'5 8.6
2014-Dec-14 13:33N 54°02' E 009°18'9 8.5
2014-Dec-14 12:33N 53°55' E 009°11'2 2.0
2014-Dec-14 11:33N 53°54' E 009°09'5 5.5
2014-Dec-14 10:33N 53°52' E 009°00'7 6.6
2014-Dec-14 09:33N 53°50' E 008°49'6 5.8
2014-Dec-14 08:33N 53°54' E 008°41'6 6.3
2014-Dec-14 07:33N 53°58' E 008°33'8 8.4
2014-Dec-14 06:33N 53°59' E 008°19'9 9.0
2014-Dec-14 05:33N 54°00' E 008°04'9 9.1
2014-Dec-14 04:33N 54°04' E 007°50'10 9.9
2014-Dec-14 03:33N 54°09' E 007°35'9 9.3
2014-Dec-14 02:33N 54°09' E 007°19'57 9.6
2014-Dec-13 20:33N 54°05' E 005°41'10 9.5
2014-Dec-13 19:32N 54°04' E 005°25'9 9.1
2014-Dec-13 18:33N 54°03' E 005°10'9 8.7
2014-Dec-13 17:33N 54°02' E 004°55'159 9.4
2014-Dec-13 00:33N 53°33' E 000°31'1010.4
2014-Dec-12 23:33N 53°33' E 000°13'1110.8
2014-Dec-12 22:34N 53°36' W 000°04'10 9.7
2014-Dec-12 21:33N 53°43' W 000°16'4 3.7
2014-Dec-12 20:31N 53°43' W 000°22'0 0.0
2014-Dec-12 19:19N 53°43' W 000°22'0 0.0
2014-Dec-12 18:28N 53°43' W 000°22'0 0.0
2014-Dec-12 17:31N 53°43' W 000°22'0 0.0
2014-Dec-12 16:28N 53°43' W 000°22'0 0.0
2014-Dec-12 15:31N 53°43' W 000°22'0 0.0
2014-Dec-12 14:31N 53°43' W 000°22'0 0.0
2014-Dec-12 13:19N 53°43' W 000°22'0 0.0
2014-Dec-12 12:31N 53°43' W 000°22'0 0.0
2014-Dec-12 11:31N 53°43' W 000°22'0 0.0
2014-Dec-12 10:25N 53°43' W 000°22'0 0.0
2014-Dec-12 09:31N 53°43' W 000°22'  
Track history (hours):
 
Tides and Currents Weather Stations Pressure Air Temp Water Temp Dewpoint Dewpoint Depression Visibility Wind Speed Wind Dir Waves Ship Positions

Hagen

Last reported at 2014-Dec-22 08:33 UTC. Time now 2014-Dec-22 12:46 UTC.
Position N 57°48' E 010°45'.

Length 89 m; draft 5.9 m.

Type: Cargo ship. MMSI: 304010898.

Date/timePositionNaut miles runAvg speedWind from/ knotsBaromVisibWave heightAir tempDewpointWater temp
2014-Dec-22 08:33N 57°48' E 010°45'7 4.8
2014-Dec-22 07:07N 57°42' E 010°39'0 0.0
2014-Dec-22 02:32N 57°42' E 010°39'3 1.5
2014-Dec-22 00:30N 57°40' E 010°45'8 8.1
2014-Dec-21 23:33N 57°36' E 010°56'9 9.2
2014-Dec-21 22:33N 57°32' E 011°11'9 9.0
2014-Dec-21 21:33N 57°27' E 011°26'9 9.4
2014-Dec-21 20:33N 57°19' E 011°32'9 9.2
2014-Dec-21 19:33N 57°10' E 011°38'10 8.7
2014-Dec-21 18:22N 57°00' E 011°45'8 8.3
2014-Dec-21 17:26N 56°53' E 011°49'8 8.9
2014-Dec-21 16:33N 56°46' E 011°54'9 8.6
2014-Dec-21 15:32N 56°37' E 011°58'8 8.4
2014-Dec-21 14:33N 56°29' E 012°01'17 7.8
2014-Dec-21 12:19N 56°14' E 012°16'6 7.6
2014-Dec-21 11:33N 56°11' E 012°25'7 7.4
2014-Dec-21 10:33N 56°06' E 012°35'7 6.9
2014-Dec-21 09:33N 55°60' E 012°41'7 7.0
2014-Dec-21 08:33N 55°53' E 012°44'8 7.6
2014-Dec-21 07:33N 55°46' E 012°42'8 8.1
2014-Dec-21 06:33N 55°38' E 012°42'8 7.7
2014-Dec-21 05:33N 55°30' E 012°43'9 8.5
2014-Dec-21 04:33N 55°21' E 012°41'7 7.0
2014-Dec-21 03:33N 55°16' E 012°50'8 7.6
2014-Dec-21 02:33N 55°15' E 013°03'8 8.2
2014-Dec-21 01:33N 55°15' E 013°17'9 8.7
2014-Dec-21 00:29N 55°14' E 013°34'8 8.1
2014-Dec-20 23:33N 55°14' E 013°47'7 7.5
2014-Dec-20 22:33N 55°13' E 013°60'8 7.6
2014-Dec-20 21:33N 55°13' E 014°13'8 7.8
2014-Dec-20 20:33N 55°18' E 014°24'9 9.0
2014-Dec-20 19:33N 55°25' E 014°33'8 8.2
2014-Dec-20 18:33N 55°30' E 014°45'7 7.3
2014-Dec-20 17:33N 55°33' E 014°56'8 7.2
2014-Dec-20 16:31N 55°37' E 015°08'7 7.1
2014-Dec-20 15:30N 55°41' E 015°18'  
2014-Dec-15 17:33N 55°31' E 015°03'1010.4
2014-Dec-15 16:33N 55°26' E 014°47'1010.3
2014-Dec-15 15:33N 55°19' E 014°34'1110.6
2014-Dec-15 14:33N 55°11' E 014°21'1110.6
2014-Dec-15 13:33N 55°03' E 014°10'1110.6
2014-Dec-15 12:33N 54°58' E 013°53'5010.0
2014-Dec-15 07:33N 54°40' E 012°32'10 9.9
2014-Dec-15 06:33N 54°34' E 012°19'1110.0
2014-Dec-15 05:29N 54°25' E 012°09'1010.1
2014-Dec-15 04:29N 54°25' E 011°52'53 9.7
2014-Dec-14 23:05N 54°30' E 010°22'5 9.3
2014-Dec-14 22:33N 54°27' E 010°15'7 6.6
2014-Dec-14 21:33N 54°22' E 010°08'0 0.5
2014-Dec-14 20:31N 54°22' E 010°08'0 0.1
2014-Dec-14 19:33N 54°22' E 010°07'6 6.1
2014-Dec-14 18:33N 54°20' E 009°57'6 6.2
2014-Dec-14 17:33N 54°21' E 009°47'21 6.1
2014-Dec-14 14:08N 54°07' E 009°20'5 8.6
2014-Dec-14 13:33N 54°02' E 009°18'9 8.5
2014-Dec-14 12:33N 53°55' E 009°11'2 2.0
2014-Dec-14 11:33N 53°54' E 009°09'5 5.5
2014-Dec-14 10:33N 53°52' E 009°00'7 6.6
2014-Dec-14 09:33N 53°50' E 008°49'6 5.8
2014-Dec-14 08:33N 53°54' E 008°41'6 6.3
2014-Dec-14 07:33N 53°58' E 008°33'8 8.4
2014-Dec-14 06:33N 53°59' E 008°19'9 9.0
2014-Dec-14 05:33N 54°00' E 008°04'9 9.1
2014-Dec-14 04:33N 54°04' E 007°50'10 9.9
2014-Dec-14 03:33N 54°09' E 007°35'9 9.3
2014-Dec-14 02:33N 54°09' E 007°19'57 9.6
2014-Dec-13 20:33N 54°05' E 005°41'10 9.5
2014-Dec-13 19:32N 54°04' E 005°25'9 9.1
2014-Dec-13 18:33N 54°03' E 005°10'9 8.7
2014-Dec-13 17:33N 54°02' E 004°55'159 9.4
2014-Dec-13 00:33N 53°33' E 000°31'1010.4
2014-Dec-12 23:33N 53°33' E 000°13'1110.8
2014-Dec-12 22:34N 53°36' W 000°04'10 9.7
2014-Dec-12 21:33N 53°43' W 000°16'4 3.7
2014-Dec-12 20:31N 53°43' W 000°22'0 0.0
2014-Dec-12 19:19N 53°43' W 000°22'0 0.0
2014-Dec-12 18:28N 53°43' W 000°22'0 0.0
2014-Dec-12 17:31N 53°43' W 000°22'0 0.0
2014-Dec-12 16:28N 53°43' W 000°22'0 0.0
2014-Dec-12 15:31N 53°43' W 000°22'0 0.0
2014-Dec-12 14:31N 53°43' W 000°22'0 0.0
2014-Dec-12 13:19N 53°43' W 000°22'0 0.0
2014-Dec-12 12:31N 53°43' W 000°22'0 0.0
2014-Dec-12 11:31N 53°43' W 000°22'0 0.0
2014-Dec-12 10:25N 53°43' W 000°22'0 0.0
2014-Dec-12 09:31N 53°43' W 000°22'  

Dump ship's entire track history